Terminal Aerodrome Forecast
Issued by NWS Pendleton, OR

Home | Current Version | Previous Version | Text Only | Print | Product List | Glossary On
Versions: 1 2 3 4 5 6 7 8 9 10 11 12 13 14 15 16 17 18 19 20 21
000
FTUS46 KPDT 252300
TAFPDT
TAF
KPDT 252320Z 2600/2624 22025G40KT P6SM BKN080
     FM260300 22025G40KT P6SM -SHRA BKN050 OVC070
     FM260700 22022G35KT P6SM VCSH OVC040
     FM261400 22015G25KT P6SM VCSH OVC060
     FM261800 25020G30KT P6SM BKN060=

USA.gov is the U.S. government's official web portal to all federal, state and local government web resources and services.